sensor_id;sensor_type;location;lat;lon;timestamp;P1;durP1;ratioP1;P2;durP2;ratioP2
12110;SDS011;6119;52.372;8.990;2023-05-24T00:00:00;9.50;;;2.50;;
12110;SDS011;6119;52.372;8.990;2023-05-24T00:02:48;13.73;;;3.23;;
12110;SDS011;6119;52.372;8.990;2023-05-24T00:05:35;7.20;;;2.93;;
12110;SDS011;6119;52.372;8.990;2023-05-24T00:08:23;11.00;;;2.80;;
12110;SDS011;6119;52.372;8.990;2023-05-24T00:11:09;11.07;;;2.50;;
12110;SDS011;6119;52.372;8.990;2023-05-24T00:13:56;16.03;;;2.93;;
12110;SDS011;6119;52.372;8.990;2023-05-24T00:16:42;13.00;;;2.97;;
12110;SDS011;6119;52.372;8.990;2023-05-24T00:19:30;14.50;;;3.20;;
12110;SDS011;6119;52.372;8.990;2023-05-24T00:22:16;14.50;;;3.27;;
12110;SDS011;6119;52.372;8.990;2023-05-24T00:25:06;18.60;;;3.20;;
12110;SDS011;6119;52.372;8.990;2023-05-24T00:27:53;14.07;;;3.53;;
12110;SDS011;6119;52.372;8.990;2023-05-24T00:30:40;17.00;;;3.10;;
12110;SDS011;6119;52.372;8.990;2023-05-24T00:33:27;11.07;;;3.20;;
12110;SDS011;6119;52.372;8.990;2023-05-24T00:36:13;9.47;;;2.63;;
12110;SDS011;6119;52.372;8.990;2023-05-24T00:39:00;9.90;;;3.30;;
12110;SDS011;6119;52.372;8.990;2023-05-24T00:41:48;19.83;;;3.10;;
12110;SDS011;6119;52.372;8.990;2023-05-24T00:44:34;10.63;;;3.47;;
12110;SDS011;6119;52.372;8.990;2023-05-24T00:47:21;17.30;;;3.53;;
12110;SDS011;6119;52.372;8.990;2023-05-24T00:50:08;14.73;;;3.67;;
12110;SDS011;6119;52.372;8.990;2023-05-24T00:52:56;16.00;;;3.13;;
12110;SDS011;6119;52.372;8.990;2023-05-24T00:55:47;11.70;;;3.23;;
12110;SDS011;6119;52.372;8.990;2023-05-24T00:58:35;15.50;;;3.17;;
12110;SDS011;6119;52.372;8.990;2023-05-24T01:01:22;12.10;;;3.40;;
12110;SDS011;6119;52.372;8.990;2023-05-24T01:04:10;12.70;;;3.27;;
12110;SDS011;6119;52.372;8.990;2023-05-24T01:07:03;10.40;;;3.00;;
12110;SDS011;6119;52.372;8.990;2023-05-24T01:10:01;10.67;;;2.93;;
12110;SDS011;6119;52.372;8.990;2023-05-24T01:12:55;12.20;;;3.20;;
12110;SDS011;6119;52.372;8.990;2023-05-24T01:15:52;12.07;;;3.60;;
12110;SDS011;6119;52.372;8.990;2023-05-24T01:18:45;18.10;;;3.33;;
12110;SDS011;6119;52.372;8.990;2023-05-24T01:21:42;16.70;;;3.20;;
12110;SDS011;6119;52.372;8.990;2023-05-24T01:24:40;15.37;;;3.30;;
12110;SDS011;6119;52.372;8.990;2023-05-24T01:27:39;18.73;;;3.87;;
12110;SDS011;6119;52.372;8.990;2023-05-24T01:30:27;16.23;;;3.80;;
12110;SDS011;6119;52.372;8.990;2023-05-24T01:33:14;13.80;;;3.87;;
12110;SDS011;6119;52.372;8.990;2023-05-24T01:36:01;11.57;;;2.80;;
12110;SDS011;6119;52.372;8.990;2023-05-24T01:38:48;13.03;;;3.07;;
12110;SDS011;6119;52.372;8.990;2023-05-24T01:41:38;13.00;;;3.03;;
12110;SDS011;6119;52.372;8.990;2023-05-24T01:44:35;17.10;;;3.93;;
12110;SDS011;6119;52.372;8.990;2023-05-24T01:47:27;12.40;;;3.07;;
12110;SDS011;6119;52.372;8.990;2023-05-24T01:50:23;14.23;;;3.23;;
12110;SDS011;6119;52.372;8.990;2023-05-24T01:53:13;14.07;;;3.40;;
12110;SDS011;6119;52.372;8.990;2023-05-24T01:56:04;9.63;;;3.10;;
12110;SDS011;6119;52.372;8.990;2023-05-24T01:58:52;11.43;;;3.10;;
12110;SDS011;6119;52.372;8.990;2023-05-24T02:01:42;13.87;;;3.10;;
12110;SDS011;6119;52.372;8.990;2023-05-24T02:04:30;14.83;;;3.20;;
12110;SDS011;6119;52.372;8.990;2023-05-24T02:07:17;14.47;;;3.70;;
12110;SDS011;6119;52.372;8.990;2023-05-24T02:10:04;18.23;;;3.40;;
12110;SDS011;6119;52.372;8.990;2023-05-24T02:12:52;18.93;;;4.33;;
12110;SDS011;6119;52.372;8.990;2023-05-24T02:15:38;18.80;;;3.83;;
12110;SDS011;6119;52.372;8.990;2023-05-24T02:18:27;16.83;;;4.07;;
12110;SDS011;6119;52.372;8.990;2023-05-24T02:21:18;16.03;;;3.97;;
12110;SDS011;6119;52.372;8.990;2023-05-24T02:24:04;18.57;;;3.63;;
12110;SDS011;6119;52.372;8.990;2023-05-24T02:26:51;15.77;;;3.70;;
12110;SDS011;6119;52.372;8.990;2023-05-24T02:29:39;10.00;;;3.23;;
12110;SDS011;6119;52.372;8.990;2023-05-24T02:32:26;15.57;;;4.17;;
12110;SDS011;6119;52.372;8.990;2023-05-24T02:35:14;12.07;;;3.70;;
12110;SDS011;6119;52.372;8.990;2023-05-24T02:38:01;10.73;;;3.73;;
12110;SDS011;6119;52.372;8.990;2023-05-24T02:40:50;12.47;;;3.33;;
12110;SDS011;6119;52.372;8.990;2023-05-24T02:43:36;19.83;;;3.50;;
12110;SDS011;6119;52.372;8.990;2023-05-24T02:46:23;12.87;;;3.60;;
12110;SDS011;6119;52.372;8.990;2023-05-24T02:49:09;19.17;;;3.37;;
12110;SDS011;6119;52.372;8.990;2023-05-24T02:51:57;12.20;;;3.43;;
12110;SDS011;6119;52.372;8.990;2023-05-24T02:54:44;13.57;;;3.70;;
12110;SDS011;6119;52.372;8.990;2023-05-24T02:57:30;18.17;;;4.37;;
12110;SDS011;6119;52.372;8.990;2023-05-24T03:00:18;14.10;;;3.70;;
12110;SDS011;6119;52.372;8.990;2023-05-24T03:03:05;14.80;;;4.10;;
12110;SDS011;6119;52.372;8.990;2023-05-24T03:05:52;16.00;;;3.87;;
12110;SDS011;6119;52.372;8.990;2023-05-24T03:08:40;15.80;;;3.13;;
12110;SDS011;6119;52.372;8.990;2023-05-24T03:11:27;11.20;;;3.30;;
12110;SDS011;6119;52.372;8.990;2023-05-24T03:14:13;15.13;;;4.00;;
12110;SDS011;6119;52.372;8.990;2023-05-24T03:17:01;13.37;;;4.17;;
12110;SDS011;6119;52.372;8.990;2023-05-24T03:19:47;16.27;;;3.40;;
12110;SDS011;6119;52.372;8.990;2023-05-24T03:22:35;15.70;;;4.20;;
12110;SDS011;6119;52.372;8.990;2023-05-24T03:25:22;9.17;;;3.23;;
12110;SDS011;6119;52.372;8.990;2023-05-24T03:28:11;18.87;;;4.87;;
12110;SDS011;6119;52.372;8.990;2023-05-24T03:30:59;14.63;;;4.67;;
12110;SDS011;6119;52.372;8.990;2023-05-24T03:33:46;17.80;;;4.17;;
12110;SDS011;6119;52.372;8.990;2023-05-24T03:36:33;9.07;;;3.20;;
12110;SDS011;6119;52.372;8.990;2023-05-24T03:39:20;12.00;;;3.70;;
12110;SDS011;6119;52.372;8.990;2023-05-24T03:42:08;14.73;;;4.00;;
12110;SDS011;6119;52.372;8.990;2023-05-24T03:44:54;17.03;;;4.07;;
12110;SDS011;6119;52.372;8.990;2023-05-24T03:47:41;16.30;;;4.20;;
12110;SDS011;6119;52.372;8.990;2023-05-24T03:50:28;17.90;;;4.07;;
12110;SDS011;6119;52.372;8.990;2023-05-24T03:53:15;15.67;;;4.90;;
12110;SDS011;6119;52.372;8.990;2023-05-24T03:56:01;17.73;;;4.30;;
12110;SDS011;6119;52.372;8.990;2023-05-24T03:58:49;11.03;;;3.40;;
12110;SDS011;6119;52.372;8.990;2023-05-24T04:01:36;19.47;;;3.87;;
12110;SDS011;6119;52.372;8.990;2023-05-24T04:04:24;13.57;;;3.50;;
12110;SDS011;6119;52.372;8.990;2023-05-24T04:07:10;15.30;;;3.63;;
12110;SDS011;6119;52.372;8.990;2023-05-24T04:09:57;11.47;;;3.63;;
12110;SDS011;6119;52.372;8.990;2023-05-24T04:12:44;15.30;;;4.23;;
12110;SDS011;6119;52.372;8.990;2023-05-24T04:15:32;18.13;;;3.93;;
12110;SDS011;6119;52.372;8.990;2023-05-24T04:18:19;19.93;;;3.77;;
12110;SDS011;6119;52.372;8.990;2023-05-24T04:21:06;11.87;;;4.57;;
12110;SDS011;6119;52.372;8.990;2023-05-24T04:23:52;14.40;;;3.60;;
12110;SDS011;6119;52.372;8.990;2023-05-24T04:26:39;16.20;;;4.40;;
12110;SDS011;6119;52.372;8.990;2023-05-24T04:29:26;17.27;;;3.77;;
12110;SDS011;6119;52.372;8.990;2023-05-24T04:32:14;14.43;;;3.83;;
12110;SDS011;6119;52.372;8.990;2023-05-24T04:35:01;13.20;;;3.93;;
12110;SDS011;6119;52.372;8.990;2023-05-24T04:37:49;22.80;;;4.23;;
12110;SDS011;6119;52.372;8.990;2023-05-24T04:40:35;17.17;;;4.07;;
12110;SDS011;6119;52.372;8.990;2023-05-24T04:43:22;16.97;;;4.17;;
12110;SDS011;6119;52.372;8.990;2023-05-24T04:46:09;14.77;;;3.67;;
12110;SDS011;6119;52.372;8.990;2023-05-24T04:48:58;14.43;;;4.17;;
12110;SDS011;6119;52.372;8.990;2023-05-24T04:51:45;14.33;;;3.67;;
12110;SDS011;6119;52.372;8.990;2023-05-24T04:54:32;11.93;;;3.80;;
12110;SDS011;6119;52.372;8.990;2023-05-24T04:57:18;11.07;;;3.73;;
12110;SDS011;6119;52.372;8.990;2023-05-24T05:00:05;16.93;;;4.37;;
12110;SDS011;6119;52.372;8.990;2023-05-24T05:02:53;16.60;;;4.10;;
12110;SDS011;6119;52.372;8.990;2023-05-24T05:05:42;15.20;;;3.87;;
12110;SDS011;6119;52.372;8.990;2023-05-24T05:08:30;13.40;;;4.07;;
12110;SDS011;6119;52.372;8.990;2023-05-24T05:11:17;16.53;;;4.10;;
12110;SDS011;6119;52.372;8.990;2023-05-24T05:14:04;13.80;;;4.53;;
12110;SDS011;6119;52.372;8.990;2023-05-24T05:16:54;17.33;;;4.50;;
12110;SDS011;6119;52.372;8.990;2023-05-24T05:19:40;12.57;;;4.10;;
12110;SDS011;6119;52.372;8.990;2023-05-24T05:22:28;18.47;;;4.57;;
12110;SDS011;6119;52.372;8.990;2023-05-24T05:25:15;16.57;;;4.33;;
12110;SDS011;6119;52.372;8.990;2023-05-24T05:28:01;22.40;;;3.80;;
12110;SDS011;6119;52.372;8.990;2023-05-24T05:30:48;20.13;;;4.07;;
12110;SDS011;6119;52.372;8.990;2023-05-24T05:33:34;16.70;;;4.07;;
12110;SDS011;6119;52.372;8.990;2023-05-24T05:36:21;12.00;;;4.33;;
12110;SDS011;6119;52.372;8.990;2023-05-24T05:39:09;11.83;;;3.87;;
12110;SDS011;6119;52.372;8.990;2023-05-24T05:41:56;13.77;;;4.00;;
12110;SDS011;6119;52.372;8.990;2023-05-24T05:44:42;12.83;;;3.23;;
12110;SDS011;6119;52.372;8.990;2023-05-24T05:47:29;16.73;;;4.00;;
12110;SDS011;6119;52.372;8.990;2023-05-24T05:50:16;16.57;;;3.73;;
12110;SDS011;6119;52.372;8.990;2023-05-24T05:53:03;15.27;;;3.63;;
12110;SDS011;6119;52.372;8.990;2023-05-24T05:55:51;16.60;;;4.10;;
12110;SDS011;6119;52.372;8.990;2023-05-24T05:58:38;15.23;;;3.83;;
12110;SDS011;6119;52.372;8.990;2023-05-24T06:01:24;12.70;;;4.17;;
12110;SDS011;6119;52.372;8.990;2023-05-24T06:04:11;14.30;;;4.30;;
12110;SDS011;6119;52.372;8.990;2023-05-24T06:06:58;13.00;;;3.93;;
12110;SDS011;6119;52.372;8.990;2023-05-24T06:09:45;17.13;;;4.30;;
12110;SDS011;6119;52.372;8.990;2023-05-24T06:12:33;11.27;;;4.07;;
12110;SDS011;6119;52.372;8.990;2023-05-24T06:15:19;13.80;;;3.87;;
12110;SDS011;6119;52.372;8.990;2023-05-24T06:18:07;19.03;;;4.37;;
12110;SDS011;6119;52.372;8.990;2023-05-24T06:20:53;20.90;;;4.30;;
12110;SDS011;6119;52.372;8.990;2023-05-24T06:23:40;12.53;;;4.17;;
12110;SDS011;6119;52.372;8.990;2023-05-24T06:26:26;12.87;;;3.80;;
12110;SDS011;6119;52.372;8.990;2023-05-24T06:29:15;13.33;;;5.77;;
12110;SDS011;6119;52.372;8.990;2023-05-24T06:32:04;17.53;;;4.27;;
12110;SDS011;6119;52.372;8.990;2023-05-24T06:34:51;17.67;;;4.40;;
12110;SDS011;6119;52.372;8.990;2023-05-24T06:37:37;19.63;;;4.03;;
12110;SDS011;6119;52.372;8.990;2023-05-24T06:43:11;13.43;;;4.60;;
12110;SDS011;6119;52.372;8.990;2023-05-24T06:46:00;15.17;;;4.47;;
12110;SDS011;6119;52.372;8.990;2023-05-24T06:48:47;18.60;;;4.03;;
12110;SDS011;6119;52.372;8.990;2023-05-24T06:51:34;20.73;;;4.30;;
12110;SDS011;6119;52.372;8.990;2023-05-24T06:54:22;15.90;;;4.20;;
12110;SDS011;6119;52.372;8.990;2023-05-24T06:57:09;14.60;;;4.13;;
12110;SDS011;6119;52.372;8.990;2023-05-24T06:59:56;17.53;;;3.93;;
12110;SDS011;6119;52.372;8.990;2023-05-24T07:02:43;14.53;;;3.97;;
12110;SDS011;6119;52.372;8.990;2023-05-24T07:05:30;15.50;;;3.20;;
12110;SDS011;6119;52.372;8.990;2023-05-24T07:08:17;17.40;;;4.03;;
12110;SDS011;6119;52.372;8.990;2023-05-24T07:11:03;16.60;;;4.60;;
12110;SDS011;6119;52.372;8.990;2023-05-24T07:13:50;14.27;;;3.93;;
12110;SDS011;6119;52.372;8.990;2023-05-24T07:16:36;12.83;;;3.67;;
12110;SDS011;6119;52.372;8.990;2023-05-24T07:19:24;14.33;;;4.10;;
12110;SDS011;6119;52.372;8.990;2023-05-24T07:22:13;17.43;;;4.50;;
12110;SDS011;6119;52.372;8.990;2023-05-24T07:25:00;12.73;;;3.97;;
12110;SDS011;6119;52.372;8.990;2023-05-24T07:27:46;18.70;;;4.20;;
12110;SDS011;6119;52.372;8.990;2023-05-24T07:30:33;17.70;;;5.10;;
12110;SDS011;6119;52.372;8.990;2023-05-24T07:33:19;19.20;;;5.57;;
12110;SDS011;6119;52.372;8.990;2023-05-24T07:36:08;18.87;;;4.47;;
12110;SDS011;6119;52.372;8.990;2023-05-24T07:38:54;18.33;;;8.07;;
12110;SDS011;6119;52.372;8.990;2023-05-24T07:41:41;18.13;;;6.83;;
12110;SDS011;6119;52.372;8.990;2023-05-24T07:44:27;16.33;;;4.23;;
12110;SDS011;6119;52.372;8.990;2023-05-24T07:47:14;18.53;;;3.90;;
12110;SDS011;6119;52.372;8.990;2023-05-24T07:50:01;13.77;;;4.00;;
12110;SDS011;6119;52.372;8.990;2023-05-24T07:52:49;17.77;;;4.43;;
12110;SDS011;6119;52.372;8.990;2023-05-24T07:55:36;12.73;;;3.90;;
12110;SDS011;6119;52.372;8.990;2023-05-24T07:58:22;14.67;;;4.33;;
12110;SDS011;6119;52.372;8.990;2023-05-24T08:01:09;12.50;;;4.03;;
12110;SDS011;6119;52.372;8.990;2023-05-24T08:03:55;16.33;;;4.10;;
12110;SDS011;6119;52.372;8.990;2023-05-24T08:06:42;20.73;;;4.27;;
12110;SDS011;6119;52.372;8.990;2023-05-24T08:09:32;15.13;;;4.03;;
12110;SDS011;6119;52.372;8.990;2023-05-24T08:12:22;16.40;;;3.80;;
12110;SDS011;6119;52.372;8.990;2023-05-24T08:15:10;14.53;;;3.87;;
12110;SDS011;6119;52.372;8.990;2023-05-24T08:17:57;11.03;;;3.80;;
12110;SDS011;6119;52.372;8.990;2023-05-24T08:20:44;16.83;;;4.27;;
12110;SDS011;6119;52.372;8.990;2023-05-24T08:23:31;12.17;;;4.00;;
12110;SDS011;6119;52.372;8.990;2023-05-24T08:26:19;15.93;;;4.07;;
12110;SDS011;6119;52.372;8.990;2023-05-24T08:29:06;21.90;;;4.13;;
12110;SDS011;6119;52.372;8.990;2023-05-24T08:31:52;23.13;;;4.63;;
12110;SDS011;6119;52.372;8.990;2023-05-24T08:34:39;9.43;;;3.63;;
12110;SDS011;6119;52.372;8.990;2023-05-24T08:37:25;15.07;;;4.73;;
12110;SDS011;6119;52.372;8.990;2023-05-24T08:40:12;15.30;;;4.13;;
12110;SDS011;6119;52.372;8.990;2023-05-24T08:43:00;14.43;;;4.67;;
12110;SDS011;6119;52.372;8.990;2023-05-24T08:45:47;11.67;;;4.27;;
12110;SDS011;6119;52.372;8.990;2023-05-24T08:48:35;26.30;;;5.57;;
12110;SDS011;6119;52.372;8.990;2023-05-24T08:51:30;18.70;;;4.23;;
12110;SDS011;6119;52.372;8.990;2023-05-24T08:54:17;18.63;;;4.37;;
12110;SDS011;6119;52.372;8.990;2023-05-24T08:57:05;13.60;;;4.23;;
12110;SDS011;6119;52.372;8.990;2023-05-24T08:59:53;16.80;;;4.33;;
12110;SDS011;6119;52.372;8.990;2023-05-24T09:02:40;18.20;;;5.13;;
12110;SDS011;6119;52.372;8.990;2023-05-24T09:05:28;16.70;;;4.67;;
12110;SDS011;6119;52.372;8.990;2023-05-24T09:08:15;20.37;;;4.93;;
12110;SDS011;6119;52.372;8.990;2023-05-24T09:11:04;15.00;;;4.87;;
12110;SDS011;6119;52.372;8.990;2023-05-24T09:13:53;19.77;;;4.13;;
12110;SDS011;6119;52.372;8.990;2023-05-24T09:16:42;15.93;;;4.60;;
12110;SDS011;6119;52.372;8.990;2023-05-24T09:19:29;18.17;;;4.70;;
12110;SDS011;6119;52.372;8.990;2023-05-24T09:22:16;15.00;;;4.67;;
12110;SDS011;6119;52.372;8.990;2023-05-24T09:25:04;19.30;;;4.63;;
12110;SDS011;6119;52.372;8.990;2023-05-24T09:27:51;21.73;;;6.70;;
12110;SDS011;6119;52.372;8.990;2023-05-24T09:30:39;19.33;;;7.40;;
12110;SDS011;6119;52.372;8.990;2023-05-24T09:33:30;21.07;;;4.57;;
12110;SDS011;6119;52.372;8.990;2023-05-24T09:36:17;16.53;;;4.33;;
12110;SDS011;6119;52.372;8.990;2023-05-24T09:39:05;17.77;;;4.97;;
12110;SDS011;6119;52.372;8.990;2023-05-24T09:41:53;14.70;;;4.97;;
12110;SDS011;6119;52.372;8.990;2023-05-24T09:44:41;21.17;;;4.53;;
12110;SDS011;6119;52.372;8.990;2023-05-24T09:47:28;17.27;;;4.27;;
12110;SDS011;6119;52.372;8.990;2023-05-24T09:50:16;14.63;;;4.20;;
12110;SDS011;6119;52.372;8.990;2023-05-24T09:53:04;16.37;;;4.63;;
12110;SDS011;6119;52.372;8.990;2023-05-24T09:55:50;16.17;;;4.23;;
12110;SDS011;6119;52.372;8.990;2023-05-24T09:58:40;19.67;;;4.93;;
12110;SDS011;6119;52.372;8.990;2023-05-24T10:01:26;11.93;;;4.13;;
12110;SDS011;6119;52.372;8.990;2023-05-24T10:04:15;17.23;;;4.40;;
12110;SDS011;6119;52.372;8.990;2023-05-24T10:07:04;15.67;;;4.60;;
12110;SDS011;6119;52.372;8.990;2023-05-24T10:09:51;18.07;;;5.17;;
12110;SDS011;6119;52.372;8.990;2023-05-24T10:12:39;15.23;;;4.40;;
12110;SDS011;6119;52.372;8.990;2023-05-24T10:15:30;22.20;;;4.57;;
12110;SDS011;6119;52.372;8.990;2023-05-24T10:18:17;18.40;;;4.73;;
12110;SDS011;6119;52.372;8.990;2023-05-24T10:21:04;11.40;;;4.20;;
12110;SDS011;6119;52.372;8.990;2023-05-24T10:23:56;16.00;;;5.27;;
12110;SDS011;6119;52.372;8.990;2023-05-24T10:26:44;22.53;;;7.80;;
12110;SDS011;6119;52.372;8.990;2023-05-24T10:29:35;14.03;;;5.40;;
12110;SDS011;6119;52.372;8.990;2023-05-24T10:32:35;18.37;;;4.63;;
12110;SDS011;6119;52.372;8.990;2023-05-24T10:35:23;13.10;;;4.40;;
12110;SDS011;6119;52.372;8.990;2023-05-24T10:38:11;14.20;;;4.63;;
12110;SDS011;6119;52.372;8.990;2023-05-24T10:40:59;12.73;;;5.23;;
12110;SDS011;6119;52.372;8.990;2023-05-24T10:43:47;18.77;;;5.00;;
12110;SDS011;6119;52.372;8.990;2023-05-24T10:47:05;18.97;;;5.70;;
12110;SDS011;6119;52.372;8.990;2023-05-24T10:49:56;20.47;;;4.77;;
12110;SDS011;6119;52.372;8.990;2023-05-24T10:52:48;17.30;;;4.53;;
12110;SDS011;6119;52.372;8.990;2023-05-24T10:55:34;14.27;;;4.30;;
12110;SDS011;6119;52.372;8.990;2023-05-24T10:58:44;23.17;;;6.23;;
12110;SDS011;6119;52.372;8.990;2023-05-24T11:01:44;19.43;;;5.13;;
12110;SDS011;6119;52.372;8.990;2023-05-24T11:04:41;15.47;;;4.93;;
12110;SDS011;6119;52.372;8.990;2023-05-24T11:07:31;16.63;;;5.47;;
12110;SDS011;6119;52.372;8.990;2023-05-24T11:10:28;15.47;;;4.40;;
12110;SDS011;6119;52.372;8.990;2023-05-24T11:13:17;14.23;;;4.77;;
12110;SDS011;6119;52.372;8.990;2023-05-24T11:16:05;12.87;;;4.57;;
12110;SDS011;6119;52.372;8.990;2023-05-24T11:18:53;15.97;;;5.23;;
12110;SDS011;6119;52.372;8.990;2023-05-24T11:21:42;17.03;;;4.67;;
12110;SDS011;6119;52.372;8.990;2023-05-24T11:24:28;16.10;;;4.97;;
12110;SDS011;6119;52.372;8.990;2023-05-24T11:27:15;13.40;;;4.70;;
12110;SDS011;6119;52.372;8.990;2023-05-24T11:30:02;7.90;;;4.13;;
12110;SDS011;6119;52.372;8.990;2023-05-24T11:32:51;11.40;;;4.43;;
12110;SDS011;6119;52.372;8.990;2023-05-24T11:35:39;16.67;;;4.40;;
12110;SDS011;6119;52.372;8.990;2023-05-24T11:38:25;12.20;;;4.17;;
12110;SDS011;6119;52.372;8.990;2023-05-24T11:41:11;12.40;;;4.77;;
12110;SDS011;6119;52.372;8.990;2023-05-24T11:43:58;11.23;;;4.33;;
12110;SDS011;6119;52.372;8.990;2023-05-24T11:46:46;11.27;;;4.43;;
12110;SDS011;6119;52.372;8.990;2023-05-24T11:49:34;13.20;;;5.00;;
12110;SDS011;6119;52.372;8.990;2023-05-24T11:52:21;13.77;;;4.97;;
12110;SDS011;6119;52.372;8.990;2023-05-24T11:55:09;15.83;;;4.57;;
12110;SDS011;6119;52.372;8.990;2023-05-24T11:58:01;11.37;;;4.83;;
12110;SDS011;6119;52.372;8.990;2023-05-24T12:00:52;15.57;;;4.60;;
12110;SDS011;6119;52.372;8.990;2023-05-24T12:03:38;7.83;;;4.33;;
12110;SDS011;6119;52.372;8.990;2023-05-24T12:06:34;19.83;;;5.20;;
12110;SDS011;6119;52.372;8.990;2023-05-24T12:09:21;10.70;;;4.33;;
12110;SDS011;6119;52.372;8.990;2023-05-24T12:12:08;12.40;;;5.00;;
12110;SDS011;6119;52.372;8.990;2023-05-24T12:14:55;14.30;;;4.53;;
12110;SDS011;6119;52.372;8.990;2023-05-24T12:17:42;17.37;;;4.63;;
12110;SDS011;6119;52.372;8.990;2023-05-24T12:20:29;14.57;;;5.83;;
12110;SDS011;6119;52.372;8.990;2023-05-24T12:23:18;16.37;;;4.83;;
12110;SDS011;6119;52.372;8.990;2023-05-24T12:26:06;16.33;;;5.17;;
12110;SDS011;6119;52.372;8.990;2023-05-24T12:28:53;17.40;;;5.53;;
12110;SDS011;6119;52.372;8.990;2023-05-24T12:31:42;11.27;;;4.33;;
12110;SDS011;6119;52.372;8.990;2023-05-24T12:34:32;11.20;;;4.53;;
12110;SDS011;6119;52.372;8.990;2023-05-24T12:37:19;11.90;;;4.67;;
12110;SDS011;6119;52.372;8.990;2023-05-24T12:40:14;15.50;;;4.90;;
12110;SDS011;6119;52.372;8.990;2023-05-24T12:43:04;16.93;;;4.57;;
12110;SDS011;6119;52.372;8.990;2023-05-24T12:45:50;15.17;;;4.90;;
12110;SDS011;6119;52.372;8.990;2023-05-24T12:48:38;11.73;;;4.10;;
12110;SDS011;6119;52.372;8.990;2023-05-24T12:51:25;9.57;;;3.47;;
12110;SDS011;6119;52.372;8.990;2023-05-24T12:54:11;12.33;;;4.30;;
12110;SDS011;6119;52.372;8.990;2023-05-24T12:56:59;11.90;;;4.20;;
12110;SDS011;6119;52.372;8.990;2023-05-24T12:59:46;14.27;;;4.57;;
12110;SDS011;6119;52.372;8.990;2023-05-24T13:02:33;13.63;;;4.67;;
12110;SDS011;6119;52.372;8.990;2023-05-24T13:05:24;12.20;;;3.83;;
12110;SDS011;6119;52.372;8.990;2023-05-24T13:08:12;8.73;;;4.20;;
12110;SDS011;6119;52.372;8.990;2023-05-24T13:11:00;12.73;;;3.73;;
12110;SDS011;6119;52.372;8.990;2023-05-24T13:13:48;13.77;;;4.27;;
12110;SDS011;6119;52.372;8.990;2023-05-24T13:16:34;11.03;;;4.37;;
12110;SDS011;6119;52.372;8.990;2023-05-24T13:19:21;12.17;;;4.10;;
12110;SDS011;6119;52.372;8.990;2023-05-24T13:22:08;11.20;;;4.67;;
12110;SDS011;6119;52.372;8.990;2023-05-24T13:24:55;15.30;;;4.80;;
12110;SDS011;6119;52.372;8.990;2023-05-24T13:27:41;13.33;;;4.20;;
12110;SDS011;6119;52.372;8.990;2023-05-24T13:30:29;16.13;;;5.60;;
12110;SDS011;6119;52.372;8.990;2023-05-24T13:33:16;13.20;;;4.13;;
12110;SDS011;6119;52.372;8.990;2023-05-24T13:36:03;12.57;;;4.40;;
12110;SDS011;6119;52.372;8.990;2023-05-24T13:38:50;14.00;;;4.90;;
12110;SDS011;6119;52.372;8.990;2023-05-24T13:41:57;12.20;;;3.87;;
12110;SDS011;6119;52.372;8.990;2023-05-24T13:44:44;12.47;;;3.80;;
12110;SDS011;6119;52.372;8.990;2023-05-24T13:47:32;12.97;;;4.23;;
12110;SDS011;6119;52.372;8.990;2023-05-24T13:50:25;12.40;;;4.20;;
12110;SDS011;6119;52.372;8.990;2023-05-24T13:53:11;14.77;;;4.03;;
12110;SDS011;6119;52.372;8.990;2023-05-24T13:55:59;16.67;;;4.37;;
12110;SDS011;6119;52.372;8.990;2023-05-24T13:58:46;15.53;;;4.33;;
12110;SDS011;6119;52.372;8.990;2023-05-24T14:01:33;14.73;;;4.87;;
12110;SDS011;6119;52.372;8.990;2023-05-24T14:04:23;9.30;;;4.33;;
12110;SDS011;6119;52.372;8.990;2023-05-24T14:07:09;13.93;;;4.63;;
12110;SDS011;6119;52.372;8.990;2023-05-24T14:09:59;12.30;;;4.83;;
12110;SDS011;6119;52.372;8.990;2023-05-24T14:12:47;12.17;;;4.80;;
12110;SDS011;6119;52.372;8.990;2023-05-24T14:15:53;16.63;;;5.40;;
12110;SDS011;6119;52.372;8.990;2023-05-24T14:18:41;13.63;;;4.33;;
12110;SDS011;6119;52.372;8.990;2023-05-24T14:21:29;9.30;;;4.20;;
12110;SDS011;6119;52.372;8.990;2023-05-24T14:24:16;17.80;;;5.37;;
12110;SDS011;6119;52.372;8.990;2023-05-24T14:27:03;17.03;;;4.83;;
12110;SDS011;6119;52.372;8.990;2023-05-24T14:29:51;11.97;;;4.90;;
12110;SDS011;6119;52.372;8.990;2023-05-24T14:32:38;14.60;;;4.33;;
12110;SDS011;6119;52.372;8.990;2023-05-24T14:35:24;16.97;;;5.43;;
12110;SDS011;6119;52.372;8.990;2023-05-24T14:38:12;17.07;;;4.87;;
12110;SDS011;6119;52.372;8.990;2023-05-24T14:40:59;10.13;;;4.93;;
12110;SDS011;6119;52.372;8.990;2023-05-24T14:43:46;12.57;;;4.90;;
12110;SDS011;6119;52.372;8.990;2023-05-24T14:46:33;11.43;;;5.13;;
12110;SDS011;6119;52.372;8.990;2023-05-24T14:49:20;12.80;;;4.70;;
12110;SDS011;6119;52.372;8.990;2023-05-24T14:52:07;11.37;;;5.20;;
12110;SDS011;6119;52.372;8.990;2023-05-24T14:54:54;10.93;;;4.83;;
12110;SDS011;6119;52.372;8.990;2023-05-24T14:57:41;12.87;;;4.97;;
12110;SDS011;6119;52.372;8.990;2023-05-24T15:00:27;17.60;;;5.17;;
12110;SDS011;6119;52.372;8.990;2023-05-24T15:03:14;11.37;;;4.93;;
12110;SDS011;6119;52.372;8.990;2023-05-24T15:06:01;15.33;;;4.60;;
12110;SDS011;6119;52.372;8.990;2023-05-24T15:08:48;15.10;;;5.33;;
12110;SDS011;6119;52.372;8.990;2023-05-24T15:11:37;14.33;;;4.70;;
12110;SDS011;6119;52.372;8.990;2023-05-24T15:14:23;18.13;;;5.63;;
12110;SDS011;6119;52.372;8.990;2023-05-24T15:17:10;12.50;;;4.80;;
12110;SDS011;6119;52.372;8.990;2023-05-24T15:19:57;14.87;;;5.30;;
12110;SDS011;6119;52.372;8.990;2023-05-24T15:22:44;14.60;;;5.10;;
12110;SDS011;6119;52.372;8.990;2023-05-24T15:25:30;14.77;;;5.03;;
12110;SDS011;6119;52.372;8.990;2023-05-24T15:28:18;15.63;;;5.00;;
12110;SDS011;6119;52.372;8.990;2023-05-24T15:31:06;20.30;;;5.57;;
12110;SDS011;6119;52.372;8.990;2023-05-24T15:33:53;12.57;;;5.53;;
12110;SDS011;6119;52.372;8.990;2023-05-24T15:36:40;12.77;;;4.43;;
12110;SDS011;6119;52.372;8.990;2023-05-24T15:39:26;12.90;;;4.47;;
12110;SDS011;6119;52.372;8.990;2023-05-24T15:42:13;15.73;;;4.70;;
12110;SDS011;6119;52.372;8.990;2023-05-24T15:45:01;14.87;;;5.37;;
12110;SDS011;6119;52.372;8.990;2023-05-24T15:47:49;15.40;;;4.70;;
12110;SDS011;6119;52.372;8.990;2023-05-24T15:50:35;16.87;;;5.53;;
12110;SDS011;6119;52.372;8.990;2023-05-24T15:53:42;15.57;;;5.20;;
12110;SDS011;6119;52.372;8.990;2023-05-24T15:56:29;14.43;;;5.03;;
12110;SDS011;6119;52.372;8.990;2023-05-24T15:59:16;17.57;;;5.73;;
12110;SDS011;6119;52.372;8.990;2023-05-24T16:02:07;15.07;;;5.30;;
12110;SDS011;6119;52.372;8.990;2023-05-24T16:04:54;10.77;;;5.20;;
12110;SDS011;6119;52.372;8.990;2023-05-24T16:07:41;8.07;;;4.57;;
12110;SDS011;6119;52.372;8.990;2023-05-24T16:10:27;11.00;;;4.63;;
12110;SDS011;6119;52.372;8.990;2023-05-24T16:13:14;22.87;;;5.07;;
12110;SDS011;6119;52.372;8.990;2023-05-24T16:16:01;19.07;;;4.93;;
12110;SDS011;6119;52.372;8.990;2023-05-24T16:18:49;10.77;;;4.43;;
12110;SDS011;6119;52.372;8.990;2023-05-24T16:21:36;13.73;;;5.10;;
12110;SDS011;6119;52.372;8.990;2023-05-24T16:24:22;9.97;;;4.27;;
12110;SDS011;6119;52.372;8.990;2023-05-24T16:27:09;15.53;;;4.50;;
12110;SDS011;6119;52.372;8.990;2023-05-24T16:29:56;9.67;;;4.07;;
12110;SDS011;6119;52.372;8.990;2023-05-24T16:32:42;10.67;;;4.30;;
12110;SDS011;6119;52.372;8.990;2023-05-24T16:35:32;19.07;;;4.97;;
12110;SDS011;6119;52.372;8.990;2023-05-24T16:38:18;19.10;;;5.07;;
12110;SDS011;6119;52.372;8.990;2023-05-24T16:41:05;18.33;;;5.47;;
12110;SDS011;6119;52.372;8.990;2023-05-24T16:43:51;12.70;;;4.60;;
12110;SDS011;6119;52.372;8.990;2023-05-24T16:46:37;12.80;;;4.77;;
12110;SDS011;6119;52.372;8.990;2023-05-24T16:49:25;19.80;;;5.00;;
12110;SDS011;6119;52.372;8.990;2023-05-24T16:52:13;12.03;;;4.10;;
12110;SDS011;6119;52.372;8.990;2023-05-24T16:55:00;19.83;;;4.97;;